createdAt,value
2019-02-25T00:00:45.380Z,22.57
2019-02-25T00:03:26.426Z,22.73
2019-02-25T00:05:54.991Z,23.57
2019-02-25T00:08:23.616Z,18.53
2019-02-25T00:10:52.196Z,20.90
2019-02-25T00:13:20.754Z,20.93
2019-02-25T00:15:49.327Z,21.33
2019-02-25T00:18:17.891Z,17.50
2019-02-25T00:20:46.481Z,21.80
2019-02-25T00:23:15.042Z,16.90
2019-02-25T00:25:43.620Z,19.73
2019-02-25T00:28:12.263Z,19.87
2019-02-25T00:30:41.123Z,20.47
2019-02-25T00:33:09.716Z,20.20
2019-02-25T00:35:38.303Z,22.98
2019-02-25T00:38:06.864Z,16.43
2019-02-25T00:40:35.452Z,16.73
2019-02-25T00:43:04.094Z,19.77
2019-02-25T00:45:32.658Z,14.10
2019-02-25T00:48:01.239Z,20.90
2019-02-25T00:50:29.811Z,18.77
2019-02-25T00:52:58.367Z,15.50
2019-02-25T00:55:26.960Z,18.77
2019-02-25T00:57:55.513Z,16.83
2019-02-25T01:00:25.445Z,19.03
2019-02-25T01:02:54.002Z,17.83
2019-02-25T01:05:22.651Z,20.17
2019-02-25T01:07:51.546Z,18.67
2019-02-25T01:10:20.532Z,18.77
2019-02-25T01:12:49.086Z,22.23
2019-02-25T01:15:17.735Z,19.03
2019-02-25T01:17:46.307Z,21.23
2019-02-25T01:20:16.122Z,17.53
2019-02-25T01:22:44.820Z,22.57
2019-02-25T01:25:14.844Z,20.60
2019-02-25T01:27:43.403Z,19.23
2019-02-25T01:30:40.028Z,17.00
2019-02-25T01:33:08.577Z,17.30
2019-02-25T01:35:37.167Z,20.40
2019-02-25T01:38:05.799Z,24.00
2019-02-25T01:40:34.460Z,19.80
2019-02-25T01:43:03.020Z,17.20
2019-02-25T01:45:31.611Z,17.50
2019-02-25T01:48:00.188Z,18.80
2019-02-25T01:50:28.769Z,20.20
2019-02-25T01:52:57.327Z,18.47
2019-02-25T01:55:25.921Z,20.60
2019-02-25T01:57:54.548Z,20.13
2019-02-25T02:00:23.270Z,15.43
2019-02-25T02:02:51.832Z,18.90
2019-02-25T02:05:20.407Z,23.33
2019-02-25T02:07:48.973Z,20.97
2019-02-25T02:10:17.930Z,24.40
2019-02-25T02:12:46.488Z,17.87
2019-02-25T02:15:16.908Z,17.70
2019-02-25T02:17:45.464Z,19.80
2019-02-25T02:20:18.155Z,21.30
2019-02-25T02:22:46.729Z,21.17
2019-02-25T02:25:15.536Z,22.17
2019-02-25T02:27:44.137Z,16.82
2019-02-25T02:30:20.102Z,20.53
2019-02-25T02:32:48.737Z,25.63
2019-02-25T02:35:17.490Z,21.43
2019-02-25T02:37:46.064Z,21.43
2019-02-25T02:40:15.265Z,22.63
2019-02-25T02:42:53.104Z,27.37
2019-02-25T02:45:24.976Z,18.37
2019-02-25T02:48:02.523Z,19.30
2019-02-25T02:50:31.087Z,23.02
2019-02-25T02:52:59.840Z,21.50
2019-02-25T02:55:28.405Z,22.10
2019-02-25T02:58:16.334Z,23.53
2019-02-25T03:00:44.893Z,21.57
2019-02-25T03:03:13.485Z,23.83
2019-02-25T03:05:42.121Z,20.73
2019-02-25T03:08:10.703Z,22.30
2019-02-25T03:10:39.257Z,19.00
2019-02-25T03:13:09.759Z,18.87
2019-02-25T03:15:38.465Z,24.67
2019-02-25T03:18:07.046Z,18.87
2019-02-25T03:20:35.616Z,17.93
2019-02-25T03:23:04.280Z,21.30
2019-02-25T03:25:32.845Z,24.43
2019-02-25T03:28:01.437Z,39.50
2019-02-25T03:30:30.005Z,30.00
2019-02-25T03:32:58.595Z,20.93
2019-02-25T03:35:27.168Z,25.92
2019-02-25T03:37:55.769Z,28.67
2019-02-25T03:40:24.711Z,30.37
2019-02-25T03:42:53.361Z,21.33
2019-02-25T03:45:21.993Z,20.82
2019-02-25T03:47:50.582Z,23.30
2019-02-25T03:50:19.330Z,22.17
2019-02-25T03:52:47.911Z,22.10
2019-02-25T03:55:18.212Z,25.13
2019-02-25T03:57:46.863Z,19.53
2019-02-25T04:00:24.295Z,19.70
2019-02-25T04:02:52.943Z,18.90
2019-02-25T04:05:21.511Z,21.20
2019-02-25T04:07:50.229Z,23.00
2019-02-25T04:10:18.795Z,19.10
2019-02-25T04:12:47.452Z,21.57
2019-02-25T04:15:21.596Z,17.90
2019-02-25T04:17:50.247Z,19.40
2019-02-25T04:20:18.878Z,21.10
2019-02-25T04:22:47.463Z,22.50
2019-02-25T04:25:16.028Z,22.47
2019-02-25T04:27:44.616Z,20.80
2019-02-25T04:30:15.492Z,22.63
2019-02-25T04:32:44.219Z,17.40
2019-02-25T04:35:13.920Z,23.20
2019-02-25T04:37:42.640Z,19.82
2019-02-25T04:40:13.026Z,21.20
2019-02-25T04:42:41.595Z,26.70
2019-02-25T04:45:12.833Z,19.73
2019-02-25T04:47:41.389Z,22.07
2019-02-25T04:50:11.720Z,24.40
2019-02-25T04:52:40.357Z,24.23
2019-02-25T04:55:10.989Z,22.13
2019-02-25T04:57:39.552Z,27.80
2019-02-25T05:00:38.077Z,21.63
2019-02-25T05:03:06.632Z,26.83
2019-02-25T05:05:35.221Z,21.83
2019-02-25T05:08:03.854Z,22.93
2019-02-25T05:10:32.438Z,26.43
2019-02-25T05:13:02.637Z,25.60
2019-02-25T05:15:32.453Z,24.60
2019-02-25T05:18:01.017Z,24.93
2019-02-25T05:20:29.606Z,30.57
2019-02-25T05:22:58.246Z,33.30
2019-02-25T05:25:26.833Z,32.77
2019-02-25T05:27:55.398Z,29.80
2019-02-25T05:30:23.995Z,27.30
2019-02-25T05:32:52.560Z,31.03
2019-02-25T05:35:21.141Z,40.08
2019-02-25T05:37:49.712Z,28.42
2019-02-25T05:40:19.749Z,24.95
2019-02-25T05:42:48.319Z,25.85
2019-02-25T05:45:17.463Z,25.57
2019-02-25T05:47:46.030Z,20.45
2019-02-25T05:50:19.608Z,22.07
2019-02-25T05:52:48.252Z,20.00
2019-02-25T05:55:17.284Z,25.10
2019-02-25T05:57:45.916Z,24.80
2019-02-25T06:00:21.419Z,36.37
2019-02-25T06:02:49.986Z,26.68
2019-02-25T06:05:18.572Z,28.23
2019-02-25T06:07:47.134Z,29.50
2019-02-25T06:10:15.798Z,26.20
2019-02-25T06:12:44.370Z,29.32
2019-02-25T06:15:15.007Z,27.85
2019-02-25T06:17:43.667Z,25.63
2019-02-25T06:20:18.945Z,33.43
2019-02-25T06:22:47.682Z,25.20
2019-02-25T06:25:17.213Z,25.30
2019-02-25T06:27:45.810Z,36.20
2019-02-25T06:30:23.825Z,29.77
2019-02-25T06:32:52.401Z,27.70
2019-02-25T06:35:20.983Z,35.30
2019-02-25T06:37:49.609Z,27.77
2019-02-25T06:40:21.252Z,40.57
2019-02-25T06:42:49.816Z,25.10
2019-02-25T06:45:26.689Z,30.30
2019-02-25T06:47:55.256Z,20.00
2019-02-25T06:50:23.904Z,23.37
2019-02-25T06:52:52.530Z,22.07
2019-02-25T06:55:21.108Z,22.80
2019-02-25T06:57:49.668Z,22.13
2019-02-25T07:00:22.420Z,24.17
2019-02-25T07:02:50.987Z,33.30
2019-02-25T07:05:27.251Z,30.90
2019-02-25T07:07:57.479Z,25.33
2019-02-25T07:10:43.973Z,28.13
2019-02-25T07:13:29.244Z,27.17
2019-02-25T07:15:59.476Z,31.37
2019-02-25T07:18:44.714Z,34.47
2019-02-25T07:21:20.563Z,31.73
2019-02-25T07:24:09.013Z,29.97
2019-02-25T07:26:55.621Z,35.00
2019-02-25T07:29:37.821Z,33.90
2019-02-25T07:32:17.018Z,30.13
2019-02-25T07:35:03.867Z,27.03
2019-02-25T07:37:34.080Z,29.30
2019-02-25T07:40:06.980Z,29.20
2019-02-25T07:42:40.046Z,26.23
2019-02-25T07:45:21.636Z,27.93
2019-02-25T07:48:06.825Z,26.73
2019-02-25T07:50:53.434Z,34.47
2019-02-25T07:53:41.807Z,29.30
2019-02-25T07:56:18.099Z,33.70
2019-02-25T07:58:48.315Z,25.33
2019-02-25T08:01:34.816Z,24.53
2019-02-25T08:04:13.568Z,22.67
2019-02-25T08:06:46.484Z,22.67
2019-02-25T08:09:16.716Z,24.20
2019-02-25T08:11:55.648Z,23.13
2019-02-25T08:14:42.367Z,25.50
2019-02-25T08:17:24.800Z,26.53
2019-02-25T08:19:57.773Z,23.63
2019-02-25T08:22:28.000Z,27.33
2019-02-25T08:24:58.191Z,21.50
2019-02-25T08:27:34.403Z,22.40
2019-02-25T08:30:04.672Z,27.83
2019-02-25T08:32:43.917Z,23.00
2019-02-25T08:35:26.219Z,24.03
2019-02-25T08:37:57.956Z,22.60
2019-02-25T08:40:37.162Z,24.07
2019-02-25T08:43:13.220Z,31.17
2019-02-25T08:45:43.415Z,23.47
2019-02-25T08:48:16.792Z,23.27
2019-02-25T08:50:45.365Z,31.97
2019-02-25T08:53:14.021Z,24.97
2019-02-25T08:55:42.720Z,25.13
2019-02-25T08:58:11.309Z,25.10
2019-02-25T09:00:41.147Z,22.37
2019-02-25T09:03:09.851Z,24.13
2019-02-25T09:05:38.448Z,21.97
2019-02-25T09:08:07.071Z,25.73
2019-02-25T09:10:35.719Z,17.90
2019-02-25T09:13:04.356Z,24.00
2019-02-25T09:15:32.949Z,29.67
2019-02-25T09:18:00.430Z,24.93
2019-02-25T09:20:29.016Z,23.23
2019-02-25T09:22:57.566Z,25.47
2019-02-25T09:25:26.161Z,22.77
2019-02-25T09:27:54.724Z,18.97
2019-02-25T09:30:23.304Z,19.97
2019-02-25T09:32:51.942Z,25.53
2019-02-25T09:35:20.526Z,25.00
2019-02-25T09:37:49.077Z,21.10
2019-02-25T09:40:18.794Z,25.23
2019-02-25T09:42:47.429Z,18.60
2019-02-25T09:45:17.147Z,19.33
2019-02-25T09:47:45.780Z,22.00
2019-02-25T09:50:16.402Z,21.20
2019-02-25T09:52:45.026Z,23.97
2019-02-25T09:55:14.577Z,23.47
2019-02-25T09:57:43.210Z,16.57
2019-02-25T10:00:19.716Z,21.93
2019-02-25T10:02:48.275Z,21.10
2019-02-25T10:05:16.857Z,15.67
2019-02-25T10:07:45.560Z,17.67
2019-02-25T10:10:15.487Z,15.50
2019-02-25T10:12:44.040Z,21.77
2019-02-25T10:15:18.531Z,18.93
2019-02-25T10:17:47.094Z,18.87
2019-02-25T10:20:15.740Z,20.23
2019-02-25T10:22:44.303Z,17.43
2019-02-25T10:25:12.929Z,14.77
2019-02-25T10:27:41.471Z,20.73
2019-02-25T10:30:15.613Z,20.30
2019-02-25T10:32:44.172Z,15.27
2019-02-25T10:35:21.112Z,14.30
2019-02-25T10:37:49.675Z,12.37
2019-02-25T10:40:22.226Z,15.87
2019-02-25T10:42:48.461Z,13.53
2019-02-25T10:45:20.880Z,16.10
2019-02-25T10:47:51.229Z,15.20
2019-02-25T10:50:19.876Z,19.73
2019-02-25T10:52:49.498Z,19.23
2019-02-25T10:55:37.005Z,16.37
2019-02-25T10:58:08.091Z,15.37
2019-02-25T11:00:37.820Z,16.97
2019-02-25T11:03:07.024Z,13.97
2019-02-25T11:05:35.583Z,19.50
2019-02-25T11:08:07.352Z,26.90
2019-02-25T11:10:37.733Z,23.33
2019-02-25T11:13:06.564Z,23.10
2019-02-25T11:15:37.494Z,20.33
2019-02-25T11:18:07.568Z,22.23
2019-02-25T11:20:37.841Z,21.77
2019-02-25T11:23:06.682Z,20.10
2019-02-25T11:25:35.242Z,20.17
2019-02-25T11:28:05.360Z,21.53
2019-02-25T11:30:34.332Z,15.63
2019-02-25T11:33:02.928Z,16.10
2019-02-25T11:35:31.479Z,13.97
2019-02-25T11:38:01.679Z,17.23
2019-02-25T11:40:31.205Z,17.07
2019-02-25T11:43:00.632Z,23.10
2019-02-25T11:45:29.263Z,10.97
2019-02-25T11:47:57.845Z,19.37
2019-02-25T11:50:26.395Z,15.27
2019-02-25T11:52:54.979Z,13.87
2019-02-25T11:55:23.599Z,16.00
2019-02-25T11:57:52.183Z,6.80
2019-02-25T12:00:48.566Z,14.43
2019-02-25T12:03:17.139Z,9.33
2019-02-25T12:05:45.795Z,12.57
2019-02-25T12:08:14.449Z,11.27
2019-02-25T12:10:43.009Z,12.70
2019-02-25T12:13:17.289Z,12.43
2019-02-25T12:15:45.975Z,8.00
2019-02-25T12:18:19.023Z,10.47
2019-02-25T12:20:47.722Z,9.47
2019-02-25T12:23:16.295Z,7.47
2019-02-25T12:25:44.856Z,9.60
2019-02-25T12:28:13.441Z,7.43
2019-02-25T12:30:42.076Z,10.53
2019-02-25T12:33:10.672Z,10.87
2019-02-25T12:35:39.228Z,7.60
2019-02-25T12:38:07.812Z,14.10
2019-02-25T12:40:36.429Z,8.63
2019-02-25T12:43:05.101Z,9.07
2019-02-25T12:45:33.717Z,8.77
2019-02-25T12:48:02.268Z,12.90
2019-02-25T12:50:31.189Z,6.63
2019-02-25T12:52:59.747Z,9.00
2019-02-25T12:55:28.333Z,10.03
2019-02-25T12:57:56.884Z,8.40
2019-02-25T13:00:25.637Z,7.83
2019-02-25T13:02:54.275Z,8.50
2019-02-25T13:05:26.551Z,6.93
2019-02-25T13:07:55.104Z,7.83
2019-02-25T13:10:23.696Z,10.43
2019-02-25T13:12:52.259Z,8.47
2019-02-25T13:15:24.708Z,8.73
2019-02-25T13:17:53.259Z,9.90
2019-02-25T13:20:41.181Z,9.03
2019-02-25T13:23:09.739Z,7.63
2019-02-25T13:25:38.388Z,7.57
2019-02-25T13:28:06.931Z,6.97
2019-02-25T13:30:35.533Z,5.57
2019-02-25T13:33:04.134Z,6.73
2019-02-25T13:35:32.711Z,9.50
2019-02-25T13:38:01.272Z,7.60
2019-02-25T13:40:29.858Z,9.20
2019-02-25T13:42:58.408Z,6.10
2019-02-25T13:45:27.077Z,7.90
2019-02-25T13:47:55.632Z,7.97
2019-02-25T13:50:24.203Z,6.33
2019-02-25T13:52:52.767Z,5.70
2019-02-25T13:55:24.328Z,7.77
2019-02-25T13:57:52.887Z,7.07
2019-02-25T14:00:22.892Z,4.93
2019-02-25T14:02:51.585Z,8.83
2019-02-25T14:05:20.452Z,8.80
2019-02-25T14:07:49.086Z,9.93
2019-02-25T14:10:21.301Z,9.60
2019-02-25T14:12:50.225Z,11.17
2019-02-25T14:15:23.873Z,8.53
2019-02-25T14:17:52.552Z,9.13
2019-02-25T14:20:25.526Z,10.40
2019-02-25T14:22:54.220Z,11.67
2019-02-25T14:25:31.225Z,9.53
2019-02-25T14:27:59.807Z,8.83
2019-02-25T14:30:32.715Z,14.20
2019-02-25T14:32:59.507Z,9.77
2019-02-25T14:35:30.413Z,10.27
2019-02-25T14:38:06.395Z,11.67
2019-02-25T14:40:32.501Z,12.30
2019-02-25T14:43:04.083Z,10.07
2019-02-25T14:45:33.639Z,8.23
2019-02-25T14:48:03.210Z,9.70
2019-02-25T14:50:32.276Z,10.23
2019-02-25T14:53:03.256Z,10.27
2019-02-25T14:55:31.354Z,11.93
2019-02-25T14:58:04.211Z,10.50
2019-02-25T15:00:32.776Z,9.13
2019-02-25T15:03:00.639Z,7.47
2019-02-25T15:05:29.486Z,10.30
2019-02-25T15:07:58.468Z,8.63
2019-02-25T15:10:29.375Z,10.43
2019-02-25T15:12:59.300Z,7.30
2019-02-25T15:15:27.765Z,13.43
2019-02-25T15:17:56.676Z,9.97
2019-02-25T15:20:26.201Z,10.67
2019-02-25T15:22:55.535Z,8.93
2019-02-25T15:25:24.298Z,7.97
2019-02-25T15:27:52.952Z,7.73
2019-02-25T15:30:25.642Z,8.57
2019-02-25T15:32:56.953Z,8.40
2019-02-25T15:35:29.182Z,10.87
2019-02-25T15:37:57.630Z,10.07
2019-02-25T15:40:27.288Z,9.60
2019-02-25T15:43:03.638Z,10.00
2019-02-25T15:45:35.400Z,9.97
2019-02-25T15:48:06.198Z,13.47
2019-02-25T15:50:35.144Z,11.90
2019-02-25T15:53:05.559Z,8.83
2019-02-25T15:55:34.804Z,12.43
2019-02-25T15:58:03.454Z,7.67
2019-02-25T16:00:34.517Z,16.73
2019-02-25T16:03:05.882Z,11.27
2019-02-25T16:05:36.849Z,12.87
2019-02-25T16:08:05.464Z,17.00
2019-02-25T16:10:34.096Z,24.03
2019-02-25T16:13:05.982Z,25.83
2019-02-25T16:15:33.341Z,23.10
2019-02-25T16:18:02.530Z,21.10
2019-02-25T16:20:32.509Z,16.77
2019-02-25T16:23:02.820Z,18.83
2019-02-25T16:25:34.319Z,29.87
2019-02-25T16:28:02.894Z,26.80
2019-02-25T16:30:31.515Z,19.13
2019-02-25T16:33:02.354Z,15.67
2019-02-25T16:35:30.673Z,15.53
2019-02-25T16:38:00.295Z,15.33
2019-02-25T16:40:31.508Z,12.00
2019-02-25T16:43:02.202Z,47.47
2019-02-25T16:45:34.666Z,18.83
2019-02-25T16:48:00.448Z,17.93
2019-02-25T16:50:29.181Z,12.83
2019-02-25T16:52:57.867Z,15.07
2019-02-25T16:55:27.762Z,9.93
2019-02-25T16:57:58.721Z,11.73
2019-02-25T17:00:30.160Z,13.33
2019-02-25T17:03:01.830Z,20.33
2019-02-25T17:05:29.876Z,20.23
2019-02-25T17:07:58.529Z,18.93
2019-02-25T17:10:29.723Z,22.53
2019-02-25T17:12:57.659Z,20.33
2019-02-25T17:15:27.155Z,16.73
2019-02-25T17:17:58.423Z,18.67
2019-02-25T17:20:28.052Z,18.77
2019-02-25T17:22:56.431Z,16.40
2019-02-25T17:25:26.819Z,23.87
2019-02-25T17:27:55.399Z,25.43
2019-02-25T17:30:30.533Z,21.70
2019-02-25T17:33:01.118Z,18.27
2019-02-25T17:35:30.734Z,24.83
2019-02-25T17:38:22.055Z,16.20
2019-02-25T17:40:49.015Z,35.00
2019-02-25T17:43:18.327Z,21.10
2019-02-25T17:45:47.805Z,19.53
2019-02-25T17:48:18.198Z,17.40
2019-02-25T17:50:46.795Z,17.83
2019-02-25T17:53:15.385Z,21.87
2019-02-25T17:55:44.380Z,19.80
2019-02-25T17:58:13.517Z,20.37
2019-02-25T18:00:44.377Z,25.17
2019-02-25T18:03:13.128Z,19.93
2019-02-25T18:05:43.437Z,24.53
2019-02-25T18:08:13.250Z,18.67
2019-02-25T18:10:44.949Z,18.97
2019-02-25T18:13:12.916Z,18.90
2019-02-25T18:15:41.814Z,24.77
2019-02-25T18:18:12.580Z,40.07
2019-02-25T18:20:40.658Z,23.63
2019-02-25T18:23:09.637Z,18.80
2019-02-25T18:25:39.705Z,28.33
2019-02-25T18:28:10.600Z,25.03
2019-02-25T18:30:39.208Z,33.80
2019-02-25T18:33:08.370Z,25.07
2019-02-25T18:35:40.583Z,21.17
2019-02-25T18:38:09.470Z,22.27
2019-02-25T18:40:40.587Z,23.47
2019-02-25T18:43:08.617Z,20.20
2019-02-25T18:45:38.425Z,20.13
2019-02-25T18:48:08.026Z,19.90
2019-02-25T18:50:36.658Z,19.53
2019-02-25T18:53:05.403Z,14.10
2019-02-25T18:55:34.421Z,17.80
2019-02-25T18:58:05.135Z,16.57
2019-02-25T19:00:37.604Z,16.93
2019-02-25T19:03:06.899Z,16.67
2019-02-25T19:05:35.612Z,23.67
2019-02-25T19:08:09.703Z,20.40
2019-02-25T19:10:45.340Z,22.30
2019-02-25T19:13:13.307Z,23.13
2019-02-25T19:15:42.870Z,24.63
2019-02-25T19:18:13.242Z,23.87
2019-02-25T19:20:43.436Z,18.83
2019-02-25T19:23:13.925Z,22.00
2019-02-25T19:25:43.108Z,18.93
2019-02-25T19:28:16.579Z,20.93
2019-02-25T19:30:42.220Z,23.67
2019-02-25T19:33:11.572Z,18.87
2019-02-25T19:35:40.964Z,21.27
2019-02-25T19:38:10.869Z,107.47
2019-02-25T19:40:40.879Z,75.60
2019-02-25T19:43:10.963Z,55.33
2019-02-25T19:45:40.988Z,50.03
2019-02-25T19:48:10.130Z,39.80
2019-02-25T19:50:50.743Z,40.33
2019-02-25T19:53:12.644Z,31.37
2019-02-25T19:55:43.218Z,28.03
2019-02-25T19:58:11.761Z,33.30
2019-02-25T20:00:40.425Z,28.37
2019-02-25T20:03:08.990Z,29.53
2019-02-25T20:05:41.107Z,23.67
2019-02-25T20:08:08.020Z,27.90
2019-02-25T20:10:36.563Z,31.63
2019-02-25T20:13:08.584Z,46.67
2019-02-25T20:15:39.650Z,40.37
2019-02-25T20:18:07.687Z,21.10
2019-02-25T20:20:38.905Z,25.63
2019-02-25T20:23:08.598Z,26.40
2019-02-25T20:25:37.200Z,26.97
2019-02-25T20:28:05.968Z,29.07
2019-02-25T20:30:34.853Z,26.57
2019-02-25T20:33:04.542Z,25.60
2019-02-25T20:35:33.688Z,25.20
2019-02-25T20:38:04.601Z,28.43
2019-02-25T20:40:33.107Z,24.03
2019-02-25T20:43:03.194Z,28.07
2019-02-25T20:45:35.722Z,28.60
2019-02-25T20:48:05.838Z,26.73
2019-02-25T20:50:34.487Z,24.73
2019-02-25T20:53:05.911Z,24.97
2019-02-25T20:55:34.522Z,26.27
2019-02-25T20:58:03.660Z,25.43
2019-02-25T21:00:34.861Z,33.87
2019-02-25T21:03:02.760Z,26.87
2019-02-25T21:05:31.455Z,29.57
2019-02-25T21:08:00.718Z,30.73
2019-02-25T21:10:32.686Z,30.97
2019-02-25T21:13:02.101Z,30.67
2019-02-25T21:15:33.317Z,27.40
2019-02-25T21:18:04.059Z,30.37
2019-02-25T21:20:31.448Z,23.03
2019-02-25T21:23:03.536Z,26.50
2019-02-25T21:25:31.380Z,31.50
2019-02-25T21:28:02.269Z,29.90
2019-02-25T21:30:30.799Z,35.03
2019-02-25T21:32:59.474Z,30.73
2019-02-25T21:35:30.172Z,33.47
2019-02-25T21:37:58.452Z,27.27
2019-02-25T21:40:29.936Z,30.07
2019-02-25T21:42:57.573Z,24.80
2019-02-25T21:45:27.521Z,24.53
2019-02-25T21:47:59.084Z,21.57
2019-02-25T21:50:30.672Z,19.00
2019-02-25T21:52:57.317Z,24.10
2019-02-25T21:55:28.064Z,25.37
2019-02-25T21:57:57.358Z,24.20
2019-02-25T22:00:29.216Z,25.87
2019-02-25T22:02:56.972Z,26.93
2019-02-25T22:05:25.531Z,32.37
2019-02-25T22:07:55.360Z,28.67
2019-02-25T22:10:24.396Z,22.80
2019-02-25T22:12:52.981Z,30.87
2019-02-25T22:15:22.399Z,31.47
2019-02-25T22:17:53.290Z,28.40
2019-02-25T22:20:22.522Z,25.40
2019-02-25T22:22:54.425Z,23.87
2019-02-25T22:25:23.215Z,30.20
2019-02-25T22:27:51.849Z,25.63
2019-02-25T22:30:20.681Z,24.33
2019-02-25T22:32:49.336Z,26.43
2019-02-25T22:35:17.893Z,28.23
2019-02-25T22:37:49.214Z,27.90
2019-02-25T22:40:17.646Z,27.03
2019-02-25T22:42:47.897Z,29.27
2019-02-25T22:45:18.795Z,22.70
2019-02-25T22:47:47.685Z,24.17
2019-02-25T22:50:16.317Z,27.17
2019-02-25T22:52:45.001Z,24.77
2019-02-25T22:55:15.293Z,38.43
2019-02-25T22:57:46.097Z,44.60
2019-02-25T23:00:34.105Z,35.63
2019-02-25T23:03:03.002Z,35.83
2019-02-25T23:05:31.568Z,28.67
2019-02-25T23:08:00.125Z,46.60
2019-02-25T23:10:28.852Z,45.17
2019-02-25T23:12:57.420Z,32.10
2019-02-25T23:15:28.160Z,38.60
2019-02-25T23:18:04.885Z,37.40
2019-02-25T23:20:29.418Z,33.53
2019-02-25T23:22:57.388Z,25.13
2019-02-25T23:25:27.153Z,32.30
2019-02-25T23:27:56.317Z,29.07
2019-02-25T23:30:25.877Z,29.90
2019-02-25T23:32:54.913Z,35.93
2019-02-25T23:35:25.294Z,41.40
2019-02-25T23:37:54.485Z,40.97
2019-02-25T23:40:23.949Z,42.77
2019-02-25T23:42:52.572Z,36.23
2019-02-25T23:45:23.191Z,36.07
2019-02-25T23:47:55.148Z,36.37
2019-02-25T23:50:21.652Z,32.97
2019-02-25T23:52:50.224Z,37.73
2019-02-25T23:55:21.483Z,35.70
2019-02-25T23:57:49.016Z,30.00
